Time;durP1;ratioP1;P1;durP2;ratioP2;P2;SDS_P1;SDS_P2;PMS_P1;PMS_P2;Temp;Humidity;BMP_temperature;BMP_pressure;BME280_temperature;BME280_humidity;BME280_pressure;Samples;Min_cycle;Max_cycle;Signal;HPM_P1;HPM_P2
2023/06/03 00:00:14;;;;;;;3.72;0.68;;;7.70;99.90;;;;;;4960571;28;20055;-65
2023/06/03 00:02:41;;;;;;;0.68;0.45;;;7.60;99.90;;;;;;4962467;28;20389;-66
2023/06/03 00:05:09;;;;;;;2.85;0.70;;;7.50;99.90;;;;;;4960764;28;20051;-63
2023/06/03 00:07:36;;;;;;;1.67;1.23;;;7.40;99.90;;;;;;4964211;28;20058;-72
2023/06/03 00:10:04;;;;;;;0.93;0.40;;;7.40;99.90;;;;;;4963194;28;20067;-64
2023/06/03 00:12:31;;;;;;;0.93;0.77;;;7.40;99.90;;;;;;4962536;28;20469;-73
2023/06/03 00:14:58;;;;;;;0.80;0.68;;;7.30;99.90;;;;;;4967842;28;20043;-64
2023/06/03 00:17:27;;;;;;;5.25;0.77;;;7.20;99.90;;;;;;4958898;28;20117;-70
2023/06/03 00:19:54;;;;;;;2.35;0.88;;;7.20;99.90;;;;;;4962743;28;20109;-64
2023/06/03 00:22:21;;;;;;;3.28;1.50;;;7.20;99.90;;;;;;4956364;28;20149;-76
2023/06/03 00:24:49;;;;;;;1.17;0.60;;;7.20;99.90;;;;;;4960315;28;20137;-66
2023/06/03 00:27:16;;;;;;;4.13;1.42;;;7.20;99.90;;;;;;4963781;28;20705;-70
2023/06/03 00:29:43;;;;;;;2.80;0.50;;;7.20;99.90;;;;;;4959461;28;20094;-69
2023/06/03 00:32:10;;;;;;;0.30;0.30;;;7.20;99.90;;;;;;4957491;28;20059;-69
2023/06/03 00:34:37;;;;;;;4.20;0.50;;;7.20;99.90;;;;;;4961575;28;20053;-67
2023/06/03 00:37:04;;;;;;;8.98;1.10;;;7.30;99.90;;;;;;4963582;28;20125;-62
2023/06/03 00:39:31;;;;;;;6.97;1.15;;;7.50;99.90;;;;;;4962398;28;20421;-67
2023/06/03 00:41:58;;;;;;;1.25;0.82;;;7.60;99.90;;;;;;4964384;28;20078;-67
2023/06/03 00:44:25;;;;;;;1.85;0.75;;;7.80;99.90;;;;;;4962651;28;20416;-67
2023/06/03 00:46:52;;;;;;;1.58;0.85;;;7.80;99.90;;;;;;4967058;28;20131;-65
2023/06/03 00:49:19;;;;;;;4.82;0.90;;;7.90;99.90;;;;;;4960820;28;20392;-67
2023/06/03 00:51:47;;;;;;;1.90;0.65;;;7.90;99.90;;;;;;4975392;28;20054;-60
2023/06/03 00:54:15;;;;;;;4.70;0.73;;;8.10;99.90;;;;;;4961678;28;20161;-63
2023/06/03 00:56:43;;;;;;;5.90;1.02;;;8.10;99.90;;;;;;4957268;28;20479;-64
2023/06/03 00:59:14;;;;;;;2.58;0.50;;;8.20;99.90;;;;;;4961388;28;20054;-71
2023/06/03 01:01:42;;;;;;;2.28;0.68;;;8.30;99.90;;;;;;4966943;28;20097;-62
2023/06/03 01:04:16;;;;;;;2.65;0.55;;;8.30;99.90;;;;;;4974388;28;20054;-68
2023/06/03 01:07:16;;;;;;;1.95;0.70;;;8.40;99.90;;;;;;4966700;28;20130;-65
2023/06/03 01:10:15;;;;;;;6.03;1.50;;;8.40;99.90;;;;;;4961171;28;20043;-66
2023/06/03 01:13:14;;;;;;;2.28;0.95;;;8.50;99.90;;;;;;4955730;28;20109;-64
2023/06/03 01:15:47;;;;;;;1.08;0.70;;;8.50;99.90;;;;;;4966770;28;20497;-68
2023/06/03 01:18:15;;;;;;;2.95;0.75;;;8.60;99.90;;;;;;4969142;28;20051;-65
2023/06/03 01:20:43;;;;;;;2.65;0.90;;;8.70;99.90;;;;;;4961968;28;20145;-73
2023/06/03 01:23:24;;;;;;;3.53;0.80;;;8.70;99.90;;;;;;4967100;28;20090;-64
2023/06/03 01:25:56;;;;;;;3.55;0.98;;;8.80;99.90;;;;;;4979124;28;20039;-61
2023/06/03 01:28:25;;;;;;;1.77;0.90;;;8.80;99.90;;;;;;4964671;28;20110;-61
2023/06/03 01:30:52;;;;;;;2.08;0.65;;;8.80;99.90;;;;;;4961977;28;20046;-60
2023/06/03 01:33:21;;;;;;;2.47;0.70;;;8.80;99.90;;;;;;4980489;28;20046;-76
2023/06/03 01:35:50;;;;;;;4.78;0.90;;;8.90;99.90;;;;;;4960726;28;20599;-63
2023/06/03 01:38:17;;;;;;;2.55;0.47;;;8.90;99.90;;;;;;4964020;28;20063;-66
2023/06/03 01:40:45;;;;;;;4.07;0.95;;;9.00;99.90;;;;;;4954788;28;20048;-67
2023/06/03 01:43:14;;;;;;;3.53;0.90;;;9.00;99.90;;;;;;4964861;28;20162;-60
2023/06/03 01:45:41;;;;;;;1.10;0.52;;;9.00;99.90;;;;;;4962673;28;20676;-63
2023/06/03 01:48:08;;;;;;;5.05;0.90;;;9.00;99.90;;;;;;4965507;28;20118;-60
2023/06/03 01:50:43;;;;;;;1.48;0.85;;;9.10;99.90;;;;;;4962330;28;20497;-65
2023/06/03 01:53:12;;;;;;;1.98;1.02;;;9.10;99.90;;;;;;4977074;28;20215;-60
2023/06/03 01:55:41;;;;;;;3.90;1.00;;;9.20;99.90;;;;;;4949292;28;20108;-67
2023/06/03 01:58:08;;;;;;;1.83;0.85;;;9.20;99.90;;;;;;4964419;28;20082;-63
2023/06/03 02:00:35;;;;;;;2.38;0.52;;;9.20;99.90;;;;;;4973921;28;20063;-65
2023/06/03 02:03:02;;;;;;;6.43;1.30;;;9.30;99.90;;;;;;4965443;28;20050;-68
2023/06/03 02:05:29;;;;;;;2.78;1.23;;;9.30;99.90;;;;;;4964492;28;20101;-67
2023/06/03 02:07:58;;;;;;;2.05;0.90;;;9.30;99.90;;;;;;4961448;28;20046;-63
2023/06/03 02:10:26;;;;;;;4.03;1.40;;;9.30;99.90;;;;;;4976866;28;20090;-65
2023/06/03 02:12:54;;;;;;;1.08;0.63;;;9.30;99.90;;;;;;4977426;28;20142;-66
2023/06/03 02:15:20;;;;;;;1.52;0.98;;;9.30;99.90;;;;;;4960434;28;20097;-74
2023/06/03 02:17:48;;;;;;;1.40;0.75;;;9.30;99.90;;;;;;4961299;28;20062;-68
2023/06/03 02:20:15;;;;;;;2.42;0.82;;;9.40;99.90;;;;;;4964132;28;20101;-63
2023/06/03 02:22:42;;;;;;;1.15;0.73;;;9.40;99.90;;;;;;4968116;28;20125;-73
2023/06/03 02:25:13;;;;;;;1.27;0.85;;;9.40;99.90;;;;;;4961903;28;20051;-61
2023/06/03 02:27:40;;;;;;;2.05;0.90;;;9.50;99.90;;;;;;4964596;28;20050;-65
2023/06/03 02:30:11;;;;;;;3.55;0.82;;;9.40;99.90;;;;;;4961531;28;20059;-63
2023/06/03 02:32:38;;;;;;;2.17;1.35;;;9.40;99.90;;;;;;4981392;28;20047;-62
2023/06/03 02:35:05;;;;;;;3.88;1.23;;;9.40;99.90;;;;;;4962228;28;20054;-67
2023/06/03 02:37:32;;;;;;;3.95;0.90;;;9.40;99.90;;;;;;4968790;28;20163;-70
2023/06/03 02:40:00;;;;;;;3.58;0.60;;;9.30;99.90;;;;;;4960777;28;20598;-66
2023/06/03 02:42:27;;;;;;;2.33;0.98;;;9.30;99.90;;;;;;4981422;28;20055;-61
2023/06/03 02:44:55;;;;;;;2.30;0.75;;;9.30;99.90;;;;;;4961118;28;20138;-68
2023/06/03 02:47:22;;;;;;;1.08;0.52;;;9.30;99.90;;;;;;4963192;28;20078;-61
2023/06/03 02:49:50;;;;;;;3.92;1.20;;;9.20;99.90;;;;;;4965961;28;20054;-65
2023/06/03 02:52:17;;;;;;;2.90;1.23;;;9.20;99.90;;;;;;4980398;28;20113;-63
2023/06/03 02:54:44;;;;;;;1.23;0.90;;;9.10;99.90;;;;;;4962862;28;20110;-71
2023/06/03 02:57:11;;;;;;;2.25;0.60;;;9.10;99.90;;;;;;4964224;28;20051;-71
2023/06/03 02:59:38;;;;;;;1.70;0.85;;;9.10;99.90;;;;;;4965988;28;20050;-62
2023/06/03 03:02:05;;;;;;;1.35;0.73;;;9.10;99.90;;;;;;4964408;28;20086;-68
2023/06/03 03:04:36;;;;;;;1.90;0.82;;;9.10;99.90;;;;;;4962884;28;20920;-69
2023/06/03 03:07:07;;;;;;;3.67;0.80;;;9.20;99.90;;;;;;4968194;28;20061;-65
2023/06/03 03:09:34;;;;;;;1.90;1.30;;;9.10;99.90;;;;;;4961694;28;20054;-64
2023/06/03 03:12:02;;;;;;;2.58;0.80;;;9.10;99.90;;;;;;4961557;28;20146;-69
2023/06/03 03:14:29;;;;;;;2.15;1.23;;;9.10;99.90;;;;;;4958678;28;20105;-74
2023/06/03 03:16:56;;;;;;;2.85;0.95;;;9.20;99.90;;;;;;4978284;28;20684;-65
2023/06/03 03:19:24;;;;;;;3.55;0.98;;;9.30;99.90;;;;;;4960575;28;20096;-62
2023/06/03 03:21:52;;;;;;;2.72;0.93;;;9.30;99.90;;;;;;4961870;28;20255;-62
2023/06/03 03:24:24;;;;;;;2.40;0.70;;;9.30;99.90;;;;;;4960302;28;20448;-62
2023/06/03 03:26:52;;;;;;;1.35;0.85;;;9.40;99.90;;;;;;4963859;28;20042;-71
2023/06/03 03:29:23;;;;;;;5.72;0.57;;;9.40;99.90;;;;;;4959402;28;20470;-64
2023/06/03 03:31:57;;;;;;;3.13;1.00;;;9.50;99.90;;;;;;4960456;28;20050;-68
2023/06/03 03:34:24;;;;;;;6.20;1.20;;;9.60;99.90;;;;;;4964195;28;20465;-71
2023/06/03 03:36:51;;;;;;;1.95;1.30;;;9.60;99.90;;;;;;4979042;28;20066;-64
2023/06/03 03:39:19;;;;;;;1.95;0.95;;;9.70;99.90;;;;;;4978087;28;20097;-75
2023/06/03 03:41:50;;;;;;;2.45;0.65;;;9.70;99.90;;;;;;4980079;28;20046;-64
2023/06/03 03:44:16;;;;;;;1.00;0.80;;;9.70;99.90;;;;;;4958452;28;20051;-62
2023/06/03 03:47:01;;;;;;;2.58;0.77;;;9.80;99.90;;;;;;4965402;28;20149;-70
2023/06/03 03:49:34;;;;;;;2.17;0.55;;;9.80;99.90;;;;;;4963093;28;20244;-77
2023/06/03 03:52:05;;;;;;;5.78;1.00;;;9.90;99.90;;;;;;4963098;28;20646;-71
2023/06/03 03:54:39;;;;;;;2.05;0.68;;;9.90;99.90;;;;;;4961795;28;20464;-66
2023/06/03 03:57:12;;;;;;;;;;;10.00;99.90;;;;;;4965437;28;20062;-62
2023/06/03 03:59:44;;;;;;;0.55;0.50;;;10.00;99.90;;;;;;4976395;28;20045;-64
2023/06/03 04:02:12;;;;;;;1.15;0.57;;;10.00;99.90;;;;;;4979619;28;20157;-66
2023/06/03 04:04:45;;;;;;;0.93;0.65;;;10.10;99.90;;;;;;4958607;28;20109;-62
2023/06/03 04:07:18;;;;;;;2.20;0.75;;;10.10;99.90;;;;;;4963596;28;20059;-65
2023/06/03 04:09:46;;;;;;;0.73;0.70;;;10.20;99.90;;;;;;4963019;28;20054;-62
2023/06/03 04:12:36;;;;;;;1.88;0.73;;;10.10;99.90;;;;;;4957845;28;20564;-64
2023/06/03 04:15:06;;;;;;;4.70;0.68;;;10.20;99.90;;;;;;4958345;28;20059;-69
2023/06/03 04:17:37;;;;;;;2.42;0.55;;;10.20;99.90;;;;;;4964524;28;20055;-62
2023/06/03 04:20:19;;;;;;;1.42;0.75;;;10.20;99.90;;;;;;4975385;28;20054;-71
2023/06/03 04:22:50;;;;;;;1.33;0.80;;;10.20;99.90;;;;;;4963631;28;20165;-68
2023/06/03 04:25:18;;;;;;;1.00;0.80;;;10.20;99.90;;;;;;4961163;28;20117;-67
2023/06/03 04:27:52;;;;;;;2.15;0.98;;;10.30;99.90;;;;;;4963158;28;20109;-64
2023/06/03 04:30:20;;;;;;;1.92;0.90;;;10.20;99.90;;;;;;4956023;28;20052;-62
2023/06/03 04:32:48;;;;;;;5.20;0.98;;;10.30;99.90;;;;;;4976632;28;20612;-71
2023/06/03 04:35:16;;;;;;;1.17;0.75;;;10.30;99.90;;;;;;4957067;28;20829;-62
2023/06/03 04:37:45;;;;;;;1.98;0.68;;;10.30;99.90;;;;;;4964279;28;20086;-64
2023/06/03 04:40:15;;;;;;;2.05;1.00;;;10.30;99.90;;;;;;4962721;28;20054;-69
2023/06/03 04:42:46;;;;;;;1.65;0.93;;;10.30;99.90;;;;;;4964770;28;20058;-68
2023/06/03 04:45:14;;;;;;;1.65;1.05;;;10.30;99.90;;;;;;4969966;28;20069;-61
2023/06/03 04:47:42;;;;;;;1.92;0.80;;;10.40;99.90;;;;;;4971175;28;20073;-64
2023/06/03 04:50:10;;;;;;;2.05;1.02;;;10.40;99.90;;;;;;4966082;28;20051;-61
2023/06/03 04:52:38;;;;;;;2.45;0.80;;;10.40;99.90;;;;;;4968400;28;20118;-62
2023/06/03 04:55:08;;;;;;;0.55;0.47;;;10.40;99.90;;;;;;4964968;28;20142;-74
2023/06/03 04:57:37;;;;;;;1.98;1.10;;;10.40;99.90;;;;;;4968934;28;20200;-69
2023/06/03 05:00:07;;;;;;;1.05;0.73;;;10.50;99.90;;;;;;4960013;28;20082;-65
2023/06/03 05:02:35;;;;;;;1.13;1.02;;;10.50;99.90;;;;;;4967605;28;20054;-68
2023/06/03 05:05:03;;;;;;;0.68;0.55;;;10.50;99.90;;;;;;4961649;28;20781;-69
2023/06/03 05:07:31;;;;;;;3.13;1.17;;;10.50;99.90;;;;;;4969256;28;20393;-65
2023/06/03 05:09:59;;;;;;;1.13;1.02;;;10.50;99.90;;;;;;4965333;28;20105;-65
2023/06/03 05:12:27;;;;;;;3.75;1.02;;;10.60;99.90;;;;;;4966112;28;20134;-61
2023/06/03 05:14:55;;;;;;;1.13;0.63;;;10.60;99.90;;;;;;4968096;28;20043;-63
2023/06/03 05:17:22;;;;;;;2.22;0.85;;;10.60;99.90;;;;;;4967941;28;20055;-68
2023/06/03 05:19:49;;;;;;;0.70;0.68;;;10.60;99.90;;;;;;4961915;28;20059;-64
2023/06/03 05:22:16;;;;;;;1.40;0.73;;;10.60;99.90;;;;;;4962788;28;20142;-71
2023/06/03 05:24:43;;;;;;;1.95;0.85;;;10.60;99.90;;;;;;4981153;28;20058;-65
2023/06/03 05:27:10;;;;;;;4.60;1.33;;;10.70;99.90;;;;;;4972123;28;20055;-67
2023/06/03 05:29:37;;;;;;;2.33;0.63;;;10.70;99.90;;;;;;4964894;28;20055;-61
2023/06/03 05:32:04;;;;;;;3.13;0.88;;;10.80;99.90;;;;;;4971860;28;20042;-62
2023/06/03 05:34:32;;;;;;;3.90;1.90;;;10.80;99.90;;;;;;4961462;28;20110;-72
2023/06/03 05:36:58;;;;;;;0.57;0.57;;;10.80;99.90;;;;;;4963088;28;20109;-61
2023/06/03 05:39:26;;;;;;;2.50;0.90;;;10.80;99.90;;;;;;4967217;28;20074;-67
2023/06/03 05:41:53;;;;;;;1.60;1.40;;;10.90;99.90;;;;;;4966537;28;20043;-61
2023/06/03 05:44:22;;;;;;;2.70;2.08;;;10.90;99.90;;;;;;4979103;28;20107;-71
2023/06/03 05:46:49;;;;;;;1.33;1.15;;;10.90;99.90;;;;;;4965320;28;20054;-61
2023/06/03 05:49:16;;;;;;;1.45;1.08;;;11.00;99.90;;;;;;4965124;28;20856;-64
2023/06/03 05:51:43;;;;;;;2.70;0.90;;;11.00;99.90;;;;;;4963898;28;20133;-70
2023/06/03 05:54:10;;;;;;;1.42;1.15;;;11.00;99.90;;;;;;4962830;28;20058;-66
2023/06/03 05:56:37;;;;;;;1.55;1.10;;;11.10;99.90;;;;;;4962403;28;20057;-67
2023/06/03 05:59:05;;;;;;;1.63;0.85;;;11.10;99.90;;;;;;4963922;28;20521;-68
2023/06/03 06:01:36;;;;;;;1.00;0.75;;;11.10;99.90;;;;;;4962144;28;20090;-66
2023/06/03 06:04:03;;;;;;;2.08;0.77;;;11.10;99.90;;;;;;4965589;28;20047;-64
2023/06/03 06:06:30;;;;;;;1.05;0.60;;;11.20;99.90;;;;;;4962416;28;20062;-72
2023/06/03 06:08:57;;;;;;;0.70;0.60;;;11.20;99.90;;;;;;4967101;28;20055;-63
2023/06/03 06:11:26;;;;;;;3.83;0.52;;;11.20;99.90;;;;;;4967157;28;20880;-61
2023/06/03 06:13:53;;;;;;;4.05;0.80;;;11.10;99.90;;;;;;4979340;28;20078;-65
2023/06/03 06:16:20;;;;;;;1.30;1.05;;;11.20;99.90;;;;;;4964300;28;20055;-66
2023/06/03 06:18:48;;;;;;;2.58;0.90;;;11.20;99.90;;;;;;4963605;28;20154;-66
2023/06/03 06:21:16;;;;;;;2.17;0.95;;;11.20;99.90;;;;;;4963281;28;20098;-65
2023/06/03 06:23:45;;;;;;;2.40;1.15;;;11.30;99.90;;;;;;4960337;28;20086;-64
2023/06/03 06:26:14;;;;;;;1.85;0.80;;;11.30;99.90;;;;;;4964598;28;20097;-68
2023/06/03 06:28:45;;;;;;;4.10;0.70;;;11.20;99.90;;;;;;4981567;28;20054;-68
2023/06/03 06:31:14;;;;;;;1.47;0.87;;;11.20;99.90;;;;;;4963556;28;20059;-62
2023/06/03 06:33:47;;;;;;;1.75;0.88;;;11.20;99.90;;;;;;4961805;28;20134;-64
2023/06/03 06:36:41;;;;;;;1.13;0.70;;;11.20;99.90;;;;;;4976492;28;20057;-62
2023/06/03 06:39:40;;;;;;;1.80;0.50;;;11.30;99.90;;;;;;4977792;28;20059;-68
2023/06/03 06:42:23;;;;;;;6.82;1.23;;;11.40;99.90;;;;;;4977998;28;20054;-67
2023/06/03 06:44:54;;;;;;;3.65;1.17;;;11.40;99.90;;;;;;4949565;28;20054;-61
2023/06/03 06:47:35;;;;;;;1.55;1.00;;;11.50;99.90;;;;;;4982270;28;20452;-64
2023/06/03 06:50:07;;;;;;;1.23;0.80;;;11.50;99.90;;;;;;4964489;28;20145;-65
2023/06/03 06:52:35;;;;;;;1.95;0.93;;;11.60;99.90;;;;;;4962843;28;20058;-66
2023/06/03 06:55:19;;;;;;;7.65;2.42;;;11.70;99.90;;;;;;4958074;28;20042;-63
2023/06/03 06:57:45;;;;;;;;;;;11.70;99.90;;;;;;4968394;28;20073;-62
2023/06/03 07:00:13;;;;;;;1.08;0.93;;;11.70;99.90;;;;;;4981104;28;19930;-68
2023/06/03 07:02:40;;;;;;;3.53;1.10;;;11.70;99.90;;;;;;4962381;28;20046;-61
2023/06/03 07:05:08;;;;;;;4.68;1.52;;;11.80;99.90;;;;;;4965356;28;20050;-66
2023/06/03 07:07:35;;;;;;;2.85;0.90;;;11.80;99.90;;;;;;4964511;28;20407;-62
2023/06/03 07:10:04;;;;;;;0.88;0.77;;;11.80;99.90;;;;;;4978667;28;20051;-62
2023/06/03 07:12:36;;;;;;;0.60;0.60;;;11.90;99.90;;;;;;4970081;28;20141;-64
2023/06/03 07:15:04;;;;;;;5.22;1.10;;;11.80;99.90;;;;;;4962879;28;20050;-62
2023/06/03 07:17:31;;;;;;;1.33;0.70;;;11.90;99.90;;;;;;4962321;28;20552;-62
2023/06/03 07:19:58;;;;;;;1.38;0.75;;;12.00;99.90;;;;;;4961681;28;20114;-68
2023/06/03 07:22:28;;;;;;;0.90;0.70;;;11.90;99.90;;;;;;4953661;28;20062;-65
2023/06/03 07:24:55;;;;;;;1.67;0.75;;;11.90;99.90;;;;;;4964455;28;20133;-64
2023/06/03 07:27:28;;;;;;;0.73;0.63;;;11.90;99.90;;;;;;4963148;28;20062;-67
2023/06/03 07:29:58;;;;;;;1.10;0.90;;;12.00;99.90;;;;;;4961068;28;20066;-63
2023/06/03 07:32:25;;;;;;;1.77;0.85;;;12.10;99.90;;;;;;4963981;28;20053;-61
2023/06/03 07:34:52;;;;;;;4.50;1.13;;;12.00;99.90;;;;;;4958993;28;20114;-62
2023/06/03 07:37:20;;;;;;;4.63;0.77;;;12.10;99.90;;;;;;4964996;28;20047;-74
2023/06/03 07:39:47;;;;;;;0.75;0.47;;;12.10;99.90;;;;;;4965679;28;20047;-61
2023/06/03 07:42:21;;;;;;;1.52;1.00;;;12.10;99.90;;;;;;4963781;28;20492;-61
2023/06/03 07:44:59;;;;;;;3.33;0.90;;;12.20;99.90;;;;;;4980264;28;20054;-69
2023/06/03 07:47:26;;;;;;;1.05;1.02;;;12.20;99.90;;;;;;4957116;28;20087;-65
2023/06/03 07:49:55;;;;;;;1.23;0.70;;;12.20;99.90;;;;;;4959947;28;20058;-66
2023/06/03 07:52:23;;;;;;;1.00;0.90;;;12.30;99.90;;;;;;4963098;28;20421;-67
2023/06/03 07:54:50;;;;;;;1.17;0.65;;;12.30;99.90;;;;;;4964762;28;20058;-65
2023/06/03 07:57:17;;;;;;;4.22;0.68;;;12.40;99.90;;;;;;4965297;28;20085;-62
2023/06/03 07:59:55;;;;;;;2.20;0.70;;;12.40;99.90;;;;;;4961964;28;20063;-66
2023/06/03 08:02:23;;;;;;;1.02;0.75;;;12.30;99.90;;;;;;4960543;28;20047;-66
2023/06/03 08:04:53;;;;;;;1.83;0.70;;;12.40;99.90;;;;;;4962546;28;20051;-66
2023/06/03 08:07:20;;;;;;;0.57;0.45;;;12.40;99.90;;;;;;4965492;28;20062;-71
2023/06/03 08:09:47;;;;;;;1.08;0.60;;;12.50;99.90;;;;;;4964908;28;20117;-66
2023/06/03 08:12:16;;;;;;;0.65;0.50;;;12.60;99.90;;;;;;4963018;28;20055;-67
2023/06/03 08:14:43;;;;;;;2.70;1.02;;;12.70;99.90;;;;;;4964097;28;20093;-64
2023/06/03 08:17:12;;;;;;;3.17;0.77;;;12.80;99.90;;;;;;4964576;28;20146;-67
2023/06/03 08:19:43;;;;;;;0.82;0.60;;;12.80;99.90;;;;;;4960303;28;21203;-69
2023/06/03 08:22:38;;;;;;;2.28;0.70;;;12.80;99.90;;;;;;4967501;28;20066;-70
2023/06/03 08:25:06;;;;;;;0.88;0.55;;;12.80;99.90;;;;;;4967674;28;20055;-69
2023/06/03 08:27:34;;;;;;;3.45;0.88;;;12.90;99.90;;;;;;4964151;28;20078;-69
2023/06/03 08:30:03;;;;;;;1.42;0.90;;;12.90;99.90;;;;;;4967882;28;20725;-66
2023/06/03 08:32:35;;;;;;;1.40;0.80;;;13.00;99.90;;;;;;4980678;28;20098;-61
2023/06/03 08:35:03;;;;;;;1.55;1.08;;;13.00;99.90;;;;;;4966359;28;20085;-65
2023/06/03 08:37:32;;;;;;;0.98;0.88;;;13.10;99.90;;;;;;4966720;28;20062;-68
2023/06/03 08:40:00;;;;;;;1.05;0.80;;;13.20;99.90;;;;;;4968637;28;20047;-61
2023/06/03 08:42:33;;;;;;;2.28;0.55;;;13.30;99.90;;;;;;4964981;28;20050;-64
2023/06/03 08:45:03;;;;;;;0.80;0.50;;;13.40;99.90;;;;;;4968760;28;20039;-65
2023/06/03 08:47:34;;;;;;;0.82;0.60;;;13.50;99.90;;;;;;4981867;28;20039;-73
2023/06/03 08:50:11;;;;;;;2.47;0.45;;;13.40;99.90;;;;;;4965711;28;20548;-72
2023/06/03 08:52:39;;;;;;;0.63;0.60;;;13.60;99.90;;;;;;4964452;28;20054;-65
2023/06/03 08:55:09;;;;;;;3.35;0.95;;;13.70;99.90;;;;;;4968445;28;20073;-69
2023/06/03 08:57:55;;;;;;;0.97;0.50;;;13.80;99.90;;;;;;4968211;28;20109;-63
2023/06/03 09:00:24;;;;;;;0.85;0.52;;;13.90;99.90;;;;;;4964928;28;20138;-70
2023/06/03 09:02:51;;;;;;;3.05;0.63;;;13.80;99.90;;;;;;4968263;28;20555;-70
2023/06/03 09:05:22;;;;;;;0.77;0.77;;;13.80;99.90;;;;;;4965540;28;20113;-69
2023/06/03 09:07:52;;;;;;;;;;;13.90;99.90;;;;;;4967831;28;20109;-63
2023/06/03 09:10:25;;;;;;;2.67;1.00;;;14.00;99.90;;;;;;4962822;28;19929;-64
2023/06/03 09:12:56;;;;;;;1.23;1.00;;;14.10;99.90;;;;;;4965339;28;20084;-69
2023/06/03 09:15:23;;;;;;;1.20;0.60;;;14.20;99.90;;;;;;4968065;28;20132;-67
2023/06/03 09:17:51;;;;;;;1.58;0.60;;;14.20;99.90;;;;;;4963698;28;20121;-72
2023/06/03 09:20:18;;;;;;;1.23;0.73;;;14.30;99.90;;;;;;4963402;28;20109;-67
2023/06/03 09:22:48;;;;;;;1.38;0.68;;;14.30;99.90;;;;;;4961960;28;20042;-63
2023/06/03 09:25:15;;;;;;;2.53;0.80;;;14.40;99.90;;;;;;4963190;28;20533;-64
2023/06/03 09:27:43;;;;;;;2.92;0.70;;;14.30;99.90;;;;;;4964578;28;20429;-66
2023/06/03 09:30:11;;;;;;;1.48;0.57;;;14.30;99.90;;;;;;4964607;28;20113;-62
2023/06/03 09:32:38;;;;;;;1.92;0.70;;;14.30;99.90;;;;;;4963111;28;20130;-66
2023/06/03 09:35:06;;;;;;;0.65;0.65;;;14.20;99.90;;;;;;4958993;28;20051;-69
2023/06/03 09:37:33;;;;;;;1.75;0.88;;;14.20;99.90;;;;;;4964387;28;20054;-60
2023/06/03 09:40:03;;;;;;;2.03;0.70;;;14.50;99.90;;;;;;4961623;28;20109;-64
2023/06/03 09:42:44;;;;;;;0.90;0.40;;;14.40;99.90;;;;;;4963389;28;20063;-63
2023/06/03 09:45:30;;;;;;;0.77;0.52;;;14.60;99.90;;;;;;4961925;28;20054;-62
2023/06/03 09:48:01;;;;;;;1.60;0.50;;;14.80;99.90;;;;;;4963211;28;20047;-67
2023/06/03 09:50:31;;;;;;;2.25;1.55;;;15.00;99.90;;;;;;4959332;28;20046;-63
2023/06/03 09:53:00;;;;;;;0.63;0.38;;;15.20;99.90;;;;;;4963673;28;20074;-62
2023/06/03 09:55:33;;;;;;;1.55;0.82;;;15.40;99.90;;;;;;4956365;28;20046;-62
2023/06/03 09:58:02;;;;;;;0.43;0.30;;;15.50;99.70;;;;;;4964642;28;20541;-66
2023/06/03 10:00:31;;;;;;;0.50;0.35;;;15.50;97.50;;;;;;4965603;28;20050;-60
2023/06/03 10:03:07;;;;;;;0.70;0.25;;;15.40;96.90;;;;;;4967552;28;20383;-61
2023/06/03 10:05:35;;;;;;;1.85;0.35;;;15.40;95.60;;;;;;4962465;28;20141;-65
2023/06/03 10:08:03;;;;;;;0.73;0.38;;;15.60;96.00;;;;;;4965634;28;20133;-70
2023/06/03 10:10:32;;;;;;;2.10;0.60;;;15.70;94.70;;;;;;4927200;28;1072801;-68
2023/06/03 10:13:21;;;;;;;2.97;0.45;;;15.90;94.20;;;;;;4964529;28;20093;-61
2023/06/03 10:15:49;;;;;;;0.57;0.40;;;16.00;94.40;;;;;;4964331;28;20149;-65
2023/06/03 10:18:16;;;;;;;1.92;0.65;;;16.20;93.30;;;;;;4962485;28;20551;-60
2023/06/03 10:20:43;;;;;;;0.75;0.35;;;16.10;92.80;;;;;;4963218;28;20054;-63
2023/06/03 10:23:11;;;;;;;1.98;0.50;;;16.10;93.20;;;;;;4967746;28;20050;-64
2023/06/03 10:25:43;;;;;;;2.05;0.73;;;16.10;92.90;;;;;;4965573;28;20050;-68
2023/06/03 10:28:12;;;;;;;0.63;0.43;;;16.10;92.20;;;;;;4964648;28;20170;-66
2023/06/03 10:30:40;;;;;;;2.17;0.70;;;16.20;92.90;;;;;;4959908;28;20094;-62
2023/06/03 10:33:09;;;;;;;0.88;0.50;;;16.20;92.30;;;;;;4965124;28;20082;-64
2023/06/03 10:35:37;;;;;;;3.88;0.63;;;16.40;92.70;;;;;;4963418;28;20054;-62
2023/06/03 10:38:06;;;;;;;0.55;0.40;;;16.60;92.10;;;;;;4962835;28;20054;-63
2023/06/03 10:40:34;;;;;;;0.50;0.30;;;16.80;92.50;;;;;;4962528;28;20061;-71
2023/06/03 10:43:02;;;;;;;1.83;0.30;;;16.80;91.90;;;;;;4967315;28;20584;-66
2023/06/03 10:45:30;;;;;;;2.53;0.70;;;16.80;91.70;;;;;;4962746;28;20070;-64
2023/06/03 10:48:07;;;;;;;1.10;0.50;;;16.70;90.20;;;;;;4964877;28;20055;-64
2023/06/03 10:50:41;;;;;;;1.17;0.50;;;16.80;89.30;;;;;;4966781;28;20501;-65
2023/06/03 10:53:19;;;;;;;0.55;0.40;;;16.80;90.70;;;;;;4967115;28;20101;-61
2023/06/03 10:56:08;;;;;;;0.40;0.32;;;16.80;90.60;;;;;;4964156;28;20105;-67
2023/06/03 10:58:36;;;;;;;2.75;0.50;;;16.50;87.60;;;;;;4962971;28;20047;-66
2023/06/03 11:01:06;;;;;;;0.20;0.20;;;16.40;85.90;;;;;;4965242;28;20082;-65
2023/06/03 11:03:54;;;;;;;0.47;0.40;;;16.30;86.20;;;;;;4962022;28;20050;-69
2023/06/03 11:06:21;;;;;;;0.35;0.35;;;16.20;86.00;;;;;;4962675;28;20231;-69
2023/06/03 11:09:08;;;;;;;0.68;0.30;;;16.20;85.60;;;;;;4963175;28;20679;-64
2023/06/03 11:11:41;;;;;;;0.98;0.40;;;16.20;84.80;;;;;;4963038;28;20050;-67
2023/06/03 11:14:29;;;;;;;1.08;0.47;;;16.20;84.60;;;;;;4964020;28;20059;-60
2023/06/03 11:16:57;;;;;;;0.75;0.28;;;16.20;84.40;;;;;;4957981;28;20055;-62
2023/06/03 11:19:35;;;;;;;0.40;0.30;;;16.30;84.70;;;;;;4963367;28;20544;-63
2023/06/03 11:22:07;;;;;;;1.50;0.40;;;16.30;83.80;;;;;;4964660;28;20066;-67
2023/06/03 11:24:37;;;;;;;2.38;0.70;;;16.30;84.10;;;;;;4962015;28;20084;-65
2023/06/03 11:27:13;;;;;;;4.43;0.85;;;16.30;81.10;;;;;;4964610;28;20057;-62
2023/06/03 11:29:46;;;;;;;1.10;0.17;;;16.30;83.10;;;;;;4961303;28;20150;-62
2023/06/03 11:32:14;;;;;;;0.30;0.30;;;16.40;82.90;;;;;;4963837;28;20564;-65
2023/06/03 11:34:46;;;;;;;0.60;0.25;;;16.60;82.00;;;;;;4960040;28;20497;-71
2023/06/03 11:37:15;;;;;;;0.57;0.50;;;16.90;82.00;;;;;;4962904;28;20420;-66
2023/06/03 11:40:08;;;;;;;1.85;0.47;;;17.20;85.80;;;;;;4965009;28;20039;-70
2023/06/03 11:42:47;;;;;;;0.77;0.28;;;17.20;81.60;;;;;;4962492;28;20046;-64
2023/06/03 11:45:17;;;;;;;0.28;0.22;;;17.30;83.80;;;;;;4962879;28;20071;-65
2023/06/03 11:47:51;;;;;;;;;;;17.50;85.90;;;;;;4966062;28;20054;-63
2023/06/03 11:50:26;;;;;;;2.58;0.68;;;17.40;84.80;;;;;;4976113;28;19937;-67
2023/06/03 11:52:54;;;;;;;0.52;0.30;;;17.50;86.50;;;;;;4961525;28;20065;-63
2023/06/03 11:55:32;;;;;;;1.98;0.82;;;17.60;85.10;;;;;;4962740;28;20074;-64
2023/06/03 11:58:10;;;;;;;0.70;0.40;;;17.50;82.20;;;;;;4962416;28;20397;-60
2023/06/03 12:00:37;;;;;;;2.95;0.50;;;17.40;81.90;;;;;;4963241;28;20058;-68
2023/06/03 12:03:05;;;;;;;2.85;0.30;;;17.60;85.50;;;;;;4963968;28;20047;-71
2023/06/03 12:05:32;;;;;;;3.55;0.88;;;17.60;85.10;;;;;;4960686;28;20043;-62
2023/06/03 12:08:00;;;;;;;0.50;0.30;;;17.60;87.10;;;;;;4961419;28;20043;-63
2023/06/03 12:10:40;;;;;;;1.92;0.50;;;17.50;85.60;;;;;;4961701;28;20069;-70
2023/06/03 12:13:07;;;;;;;0.32;0.30;;;17.40;84.30;;;;;;4962429;28;20786;-64
2023/06/03 12:15:34;;;;;;;1.58;0.43;;;17.40;82.20;;;;;;4963911;28;20448;-64
2023/06/03 12:18:04;;;;;;;0.63;0.35;;;17.50;83.90;;;;;;4961286;28;20158;-61
2023/06/03 12:20:31;;;;;;;;;;;17.40;83.40;;;;;;4959729;28;20066;-61
2023/06/03 12:22:59;;;;;;;2.25;0.43;;;17.30;83.10;;;;;;4965054;28;19965;-66
2023/06/03 12:25:29;;;;;;;1.00;0.50;;;17.30;82.90;;;;;;4963189;28;20066;-67
2023/06/03 12:27:57;;;;;;;0.82;0.73;;;17.30;84.30;;;;;;4962661;28;20115;-66
2023/06/03 12:30:31;;;;;;;1.85;0.50;;;17.30;81.90;;;;;;4960345;28;20051;-69
2023/06/03 12:32:58;;;;;;;1.23;0.50;;;17.40;81.50;;;;;;4964024;28;20098;-65
2023/06/03 12:35:28;;;;;;;0.93;0.30;;;17.40;81.90;;;;;;4960769;28;20055;-60
2023/06/03 12:38:08;;;;;;;0.68;0.47;;;17.50;82.10;;;;;;4963227;28;20327;-63
2023/06/03 12:40:36;;;;;;;0.63;0.30;;;17.60;81.00;;;;;;4960236;28;20545;-64
2023/06/03 12:43:04;;;;;;;1.27;0.35;;;17.60;81.70;;;;;;4964554;28;20539;-70
2023/06/03 12:45:31;;;;;;;0.60;0.30;;;17.70;82.40;;;;;;4964406;28;20493;-66
2023/06/03 12:47:58;;;;;;;1.08;0.55;;;18.00;82.60;;;;;;4964334;28;20057;-60
2023/06/03 12:50:32;;;;;;;1.20;0.50;;;18.10;83.00;;;;;;4960023;28;20051;-61
2023/06/03 12:53:16;;;;;;;0.63;0.63;;;18.30;84.00;;;;;;4962400;28;20488;-61
2023/06/03 12:55:43;;;;;;;0.60;0.50;;;18.40;81.90;;;;;;4962177;28;20138;-67
2023/06/03 12:58:10;;;;;;;4.07;0.57;;;18.60;83.40;;;;;;4963535;28;20208;-67
2023/06/03 13:00:37;;;;;;;0.60;0.40;;;18.60;81.00;;;;;;4963626;28;20109;-71
2023/06/03 13:03:04;;;;;;;0.65;0.40;;;18.60;81.70;;;;;;4965677;28;20158;-61
2023/06/03 13:05:31;;;;;;;0.98;0.25;;;18.40;79.60;;;;;;4961609;28;20523;-66